Time;durP1;ratioP1;P1;durP2;ratioP2;P2;SDS_P1;SDS_P2;PMS_P1;PMS_P2;Temp;Humidity;BMP_temperature;BMP_pressure;BME280_temperature;BME280_humidity;BME280_pressure;Samples;Min_cycle;Max_cycle;Signal;HPM_P1;HPM_P2
2021/04/21 00:01:24;;;;;;;46.17;33.65;;;;;;;7.74;75.24;100253.31;5018773;28;20317;-71
2021/04/21 00:03:53;;;;;;;48.13;34.65;;;;;;;7.66;75.26;100252.84;5018314;28;20085;-73
2021/04/21 00:06:20;;;;;;;47.10;35.08;;;;;;;7.56;75.57;100249.75;5033989;28;20062;-71
2021/04/21 00:08:48;;;;;;;46.97;34.88;;;;;;;7.65;75.41;100256.44;5018717;28;20046;-72
2021/04/21 00:11:16;;;;;;;46.95;32.08;;;;;;;7.60;75.54;100263.75;5001045;28;20053;-73
2021/04/21 00:13:44;;;;;;;45.22;34.88;;;;;;;7.47;76.07;100256.34;5017354;28;20428;-72
2021/04/21 00:16:17;;;;;;;49.95;34.63;;;;;;;7.42;75.61;100260.16;5018444;28;20059;-72
2021/04/21 00:18:45;;;;;;;46.47;34.08;;;;;;;7.37;76.35;100260.38;5019353;28;20050;-72
2021/04/21 00:21:12;;;;;;;50.70;35.25;;;;;;;7.39;76.16;100266.47;5019859;28;20045;-71
2021/04/21 00:23:40;;;;;;;48.88;34.90;;;;;;;7.26;76.96;100252.03;5019284;28;20061;-72
2021/04/21 00:26:11;;;;;;;52.15;36.58;;;;;;;7.27;76.80;100251.09;5017961;28;20073;-71
2021/04/21 00:28:38;;;;;;;;;;;;;;;7.22;77.03;100253.09;5018775;28;20085;-71
2021/04/21 00:31:07;;;;;;;47.13;33.67;;;;;;;7.25;76.95;100253.81;5017849;28;19928;-72
2021/04/21 00:33:35;;;;;;;46.28;33.92;;;;;;;7.20;76.62;100251.38;5017985;28;20065;-71
2021/04/21 00:36:04;;;;;;;45.70;33.28;;;;;;;7.06;77.21;100244.06;5018065;28;20058;-71
2021/04/21 00:38:32;;;;;;;48.60;32.28;;;;;;;7.11;77.21;100245.63;5017934;28;20123;-71
2021/04/21 00:41:11;;;;;;;44.10;33.80;;;;;;;7.17;77.29;100245.34;5018200;28;20121;-72
2021/04/21 00:43:37;;;;;;;43.83;31.85;;;;;;;7.22;76.86;100245.13;5017832;28;20054;-72
2021/04/21 00:46:10;;;;;;;44.90;32.45;;;;;;;7.23;76.61;100249.53;5017985;28;20107;-72
2021/04/21 00:48:55;;;;;;;45.05;32.17;;;;;;;7.08;77.49;100241.31;5017693;28;20053;-72
2021/04/21 00:51:28;;;;;;;48.47;32.22;;;;;;;6.99;77.60;100233.78;5018071;28;20056;-71
2021/04/21 00:54:06;;;;;;;45.92;32.65;;;;;;;7.11;77.57;100242.97;5018015;28;20382;-72
2021/04/21 00:57:01;;;;;;;47.55;33.72;;;;;;;7.07;77.16;100239.59;5017688;28;20096;-70
2021/04/21 00:59:36;;;;;;;47.72;32.20;;;;;;;7.01;78.14;100238.09;5017670;28;20061;-71
2021/04/21 01:02:06;;;;;;;46.97;32.25;;;;;;;6.97;77.97;100239.16;5018351;28;20123;-72
2021/04/21 01:04:35;;;;;;;40.08;31.55;;;;;;;6.96;77.92;100241.88;5019458;28;20053;-71
2021/04/21 01:07:03;;;;;;;40.88;30.45;;;;;;;6.97;78.20;100238.31;4998802;28;20423;-73
2021/04/21 01:09:31;;;;;;;46.53;32.75;;;;;;;6.84;78.52;100238.84;4997617;28;20427;-73
2021/04/21 01:12:03;;;;;;;41.28;30.85;;;;;;;6.82;78.50;100232.75;4998045;28;20108;-69
2021/04/21 01:14:36;;;;;;;43.33;31.42;;;;;;;6.84;78.20;100230.88;4997535;28;20486;-73
2021/04/21 01:17:08;;;;;;;43.17;31.88;;;;;;;6.76;78.31;100235.66;4997755;28;20057;-73
2021/04/21 01:20:03;;;;;;;44.15;32.22;;;;;;;6.65;78.81;100234.34;4997333;28;20057;-72
2021/04/21 01:22:43;;;;;;;45.97;32.28;;;;;;;6.56;79.04;100229.44;4997331;28;20443;-72
2021/04/21 01:25:47;;;;;;;42.50;32.30;;;;;;;6.60;78.83;100228.34;4996271;28;20352;-72
2021/04/21 01:28:18;;;;;;;45.58;32.35;;;;;;;6.56;78.69;100232.09;4996463;28;20136;-71
2021/04/21 01:30:46;;;;;;;43.50;30.90;;;;;;;6.49;79.27;100225.34;5011913;28;20128;-73
2021/04/21 01:33:15;;;;;;;42.13;31.20;;;;;;;6.51;79.18;100234.94;4996065;28;20073;-73
2021/04/21 01:35:48;;;;;;;40.35;31.00;;;;;;;6.50;79.20;100230.53;4996710;28;20058;-72
2021/04/21 01:38:18;;;;;;;44.33;31.75;;;;;;;6.47;79.00;100232.47;4996946;28;20424;-71
2021/04/21 01:40:46;;;;;;;43.38;30.85;;;;;;;6.51;78.59;100231.41;4997035;28;20054;-73
2021/04/21 01:43:19;;;;;;;48.05;32.28;;;;;;;6.44;78.95;100230.84;4997357;28;20054;-73
2021/04/21 01:45:48;;;;;;;45.30;32.05;;;;;;;6.38;79.23;100239.06;4996933;28;20054;-72
2021/04/21 01:48:20;;;;;;;49.15;33.03;;;;;;;6.45;79.09;100239.63;4997174;28;20155;-73
2021/04/21 01:50:48;;;;;;;46.83;34.20;;;;;;;6.32;79.15;100240.16;4997076;28;20093;-72
2021/04/21 01:53:46;;;;;;;44.20;32.70;;;;;;;6.25;79.67;100236.91;4996997;28;20073;-73
2021/04/21 01:56:21;;;;;;;44.30;32.53;;;;;;;6.29;79.80;100244.72;4995982;28;20065;-71
2021/04/21 01:59:02;;;;;;;47.88;32.67;;;;;;;6.28;79.72;100243.00;4996885;28;20321;-72
2021/04/21 02:01:56;;;;;;;52.28;34.15;;;;;;;6.25;79.82;100242.22;4996739;28;20428;-73
2021/04/21 02:04:44;;;;;;;51.10;32.78;;;;;;;6.34;80.04;100240.97;4996564;28;20448;-72
2021/04/21 02:07:41;;;;;;;45.72;33.95;;;;;;;6.33;80.05;100239.22;4996686;28;20054;-73
2021/04/21 02:10:29;;;;;;;50.58;34.97;;;;;;;6.27;80.61;100235.97;4996643;28;20120;-71
2021/04/21 02:13:13;;;;;;;57.55;36.70;;;;;;;6.23;80.15;100238.75;4996776;28;20053;-71
2021/04/21 02:15:52;;;;;;;51.10;35.42;;;;;;;6.31;79.87;100234.94;4995353;28;20058;-72
2021/04/21 02:18:18;;;;;;;46.38;33.83;;;;;;;6.22;79.97;100241.47;4996253;28;20360;-71
2021/04/21 02:20:57;;;;;;;48.88;35.35;;;;;;;6.14;80.12;100239.13;4996396;28;20433;-73
2021/04/21 02:23:27;;;;;;;47.97;34.58;;;;;;;6.12;80.46;100238.34;4996529;28;20050;-72
2021/04/21 02:25:59;;;;;;;51.53;36.40;;;;;;;6.16;80.41;100241.72;4996303;28;20117;-71
2021/04/21 02:28:56;;;;;;;47.00;33.28;;;;;;;6.08;80.57;100237.59;4996197;28;20046;-72
2021/04/21 02:31:34;;;;;;;48.63;34.15;;;;;;;6.14;80.42;100243.59;4996241;28;20432;-71
2021/04/21 02:34:25;;;;;;;47.83;34.45;;;;;;;6.04;80.76;100237.81;4996265;28;20062;-72
2021/04/21 02:37:05;;;;;;;48.92;34.30;;;;;;;6.06;80.27;100239.44;4994917;28;20058;-71
2021/04/21 02:39:57;;;;;;;47.22;33.33;;;;;;;6.04;79.94;100243.94;4996186;28;20313;-71
2021/04/21 02:42:48;;;;;;;49.50;33.75;;;;;;;6.02;80.29;100242.25;4995214;28;20148;-72
2021/04/21 02:45:26;;;;;;;54.78;37.40;;;;;;;6.11;80.58;100245.41;4995461;28;20050;-71
2021/04/21 02:48:06;;;;;;;59.60;36.47;;;;;;;6.12;80.60;100243.66;4995671;28;20128;-72
2021/04/21 02:50:46;;;;;;;50.97;34.25;;;;;;;6.12;79.89;100238.34;5011294;28;20050;-71
2021/04/21 02:53:21;;;;;;;53.92;36.65;;;;;;;6.01;80.80;100227.28;4995838;28;20112;-71
2021/04/21 02:56:07;;;;;;;51.60;34.58;;;;;;;6.06;80.60;100238.59;4995643;28;20050;-71
2021/04/21 02:58:48;;;;;;;56.63;36.13;;;;;;;6.03;80.77;100236.94;4995568;28;20047;-71
2021/04/21 03:01:23;;;;;;;;;;;;;;;6.04;80.54;100238.66;4996791;28;20050;-70
2021/04/21 03:03:57;;;;;;;53.83;35.58;;;;;;;5.97;80.57;100239.78;4996202;28;20302;-71
2021/04/21 03:06:37;;;;;;;52.92;36.00;;;;;;;5.84;80.74;100221.75;5010214;28;20390;-71
2021/04/21 03:09:12;;;;;;;52.40;36.90;;;;;;;5.83;81.50;100227.97;5015570;28;20096;-71
2021/04/21 03:11:41;;;;;;;53.50;38.03;;;;;;;5.91;81.59;100232.97;5015270;28;20046;-72
2021/04/21 03:14:14;;;;;;;58.78;38.22;;;;;;;5.81;81.44;100244.84;5014289;28;20049;-71
2021/04/21 03:16:45;;;;;;;53.95;36.60;;;;;;;5.82;81.16;100238.63;5014372;28;20096;-72
2021/04/21 03:19:12;;;;;;;;;;;;;;;5.81;80.88;100240.41;5015528;28;20050;-72
2021/04/21 03:21:44;;;;;;;50.50;35.33;;;;;;;5.78;81.17;100235.22;5015114;28;20601;-72
2021/04/21 03:24:15;;;;;;;58.60;38.75;;;;;;;5.78;80.86;100242.31;5015480;28;20058;-73
2021/04/21 03:26:46;;;;;;;51.95;36.60;;;;;;;5.71;81.52;100226.69;5015110;28;20131;-73
2021/04/21 03:29:17;;;;;;;58.42;38.50;;;;;;;5.75;81.43;100245.09;5017741;28;20390;-72
2021/04/21 03:31:46;;;;;;;;;;;;;;;5.55;81.42;100214.94;5019524;28;20458;-73
2021/04/21 03:34:16;;;;;;;56.13;36.67;;;;;;;5.65;81.58;100249.88;5019068;28;20327;-73
2021/04/21 03:36:43;;;;;;;54.57;37.50;;;;;;;5.70;81.18;100242.63;5034232;28;20432;-72
2021/04/21 03:39:11;;;;;;;55.15;38.63;;;;;;;5.64;81.47;100241.09;5018960;28;20321;-73
2021/04/21 03:41:38;;;;;;;58.38;39.35;;;;;;;5.60;81.84;100238.63;5018751;28;20068;-72
2021/04/21 03:44:06;;;;;;;56.17;37.28;;;;;;;5.62;82.01;100237.63;5019113;28;20072;-73
2021/04/21 03:46:33;;;;;;;55.38;39.65;;;;;;;5.58;82.21;100239.53;5018916;28;20057;-73
2021/04/21 03:49:00;;;;;;;55.55;39.55;;;;;;;5.49;81.29;100234.59;5018672;28;20462;-72
2021/04/21 03:51:27;;;;;;;56.42;38.25;;;;;;;5.56;81.87;100237.88;5018663;28;20062;-72
2021/04/21 03:53:55;;;;;;;60.17;41.35;;;;;;;5.53;82.11;100238.84;5018709;28;20388;-70
2021/04/21 03:56:24;;;;;;;57.20;41.20;;;;;;;5.52;82.06;100237.13;5018555;28;20455;-70
2021/04/21 03:58:54;;;;;;;59.75;40.28;;;;;;;5.46;82.49;100237.38;5033890;28;20049;-73
2021/04/21 04:01:22;;;;;;;58.58;39.40;;;;;;;5.47;81.80;100244.38;5017622;28;20406;-71
2021/04/21 04:03:59;;;;;;;60.58;42.42;;;;;;;5.40;82.59;100237.59;5018384;28;20108;-72
2021/04/21 04:06:41;;;;;;;56.72;39.63;;;;;;;5.43;82.46;100234.81;5018591;28;20050;-71
2021/04/21 04:09:10;;;;;;;60.83;43.15;;;;;;;5.38;83.07;100240.31;5017419;28;20100;-72
2021/04/21 04:11:45;;;;;;;60.22;41.03;;;;;;;5.29;82.96;100227.44;5018219;28;20057;-70
2021/04/21 04:14:17;;;;;;;60.78;41.25;;;;;;;5.33;82.75;100236.13;5033783;28;20049;-71
2021/04/21 04:16:45;;;;;;;55.38;38.03;;;;;;;5.29;82.75;100243.31;5018276;28;20058;-71
2021/04/21 04:19:12;;;;;;;63.13;42.65;;;;;;;5.27;83.05;100243.34;5017981;28;20053;-70
2021/04/21 04:21:41;;;;;;;64.05;42.08;;;;;;;5.23;82.81;100238.25;5018101;28;20497;-72
2021/04/21 04:24:11;;;;;;;60.80;41.65;;;;;;;5.26;82.65;100239.00;5017153;28;20387;-71
2021/04/21 04:26:41;;;;;;;58.47;40.47;;;;;;;5.28;82.83;100246.84;5018207;28;20100;-70
2021/04/21 04:29:08;;;;;;;58.67;39.20;;;;;;;5.19;83.48;100245.44;5017807;28;20050;-71
2021/04/21 04:31:36;;;;;;;60.28;41.67;;;;;;;5.21;83.26;100243.59;5017858;28;20279;-72
2021/04/21 04:34:07;;;;;;;60.72;42.03;;;;;;;5.23;82.86;100247.03;5018064;28;20072;-70
2021/04/21 04:36:38;;;;;;;;;;;;;;;5.21;82.90;100248.88;5033748;28;20104;-72
2021/04/21 04:39:05;;;;;;;68.22;43.13;;;;;;;5.17;83.45;100252.53;5016416;28;20318;-71
2021/04/21 04:41:31;;;;;;;64.70;43.03;;;;;;;5.21;83.06;100259.47;5017758;28;20130;-72
2021/04/21 04:43:59;;;;;;;67.47;43.97;;;;;;;5.18;83.44;100254.31;5016833;28;20064;-72
2021/04/21 04:46:31;;;;;;;66.05;44.40;;;;;;;5.22;83.05;100255.91;5017682;28;20050;-70
2021/04/21 04:49:18;;;;;;;67.00;44.50;;;;;;;5.23;82.64;100254.13;5016753;28;20056;-71
2021/04/21 04:51:46;;;;;;;63.70;43.38;;;;;;;5.23;83.31;100260.25;5016529;28;20140;-72
2021/04/21 04:54:15;;;;;;;66.13;44.78;;;;;;;5.23;82.91;100252.31;5017355;28;20054;-72
2021/04/21 04:56:44;;;;;;;65.55;43.20;;;;;;;5.29;82.69;100264.47;5017337;28;20088;-72
2021/04/21 04:59:12;;;;;;;62.15;41.40;;;;;;;5.21;83.50;100264.75;5017410;28;20061;-73
2021/04/21 05:01:48;;;;;;;66.03;42.78;;;;;;;5.21;83.65;100269.19;5017400;28;20121;-71
2021/04/21 05:04:17;;;;;;;66.55;45.10;;;;;;;5.13;83.79;100261.53;5017016;28;20443;-72
2021/04/21 05:06:56;;;;;;;64.55;44.28;;;;;;;5.19;83.48;100269.25;5017321;28;20061;-73
2021/04/21 05:09:24;;;;;;;66.18;45.45;;;;;;;5.21;83.51;100270.03;5017286;28;20053;-72
2021/04/21 05:11:54;;;;;;;65.85;43.55;;;;;;;5.23;83.28;100270.84;5017074;28;20486;-70
2021/04/21 05:14:23;;;;;;;68.03;45.22;;;;;;;5.19;83.42;100257.78;5017338;28;20058;-71
2021/04/21 05:16:55;;;;;;;64.30;43.10;;;;;;;5.36;83.38;100273.91;5015692;28;20560;-71
2021/04/21 05:19:41;;;;;;;67.22;42.08;;;;;;;5.36;82.95;100280.97;5015368;28;20045;-70
2021/04/21 05:22:44;;;;;;;64.70;45.10;;;;;;;5.38;83.24;100284.44;5016229;28;20057;-72
2021/04/21 05:25:32;;;;;;;64.82;43.80;;;;;;;5.42;83.19;100278.09;5017017;28;20061;-72
2021/04/21 05:28:01;;;;;;;64.75;44.53;;;;;;;5.40;83.52;100286.09;5015816;28;20077;-71
2021/04/21 05:31:06;;;;;;;65.95;43.30;;;;;;;5.53;82.87;100283.88;5016677;28;20062;-71
2021/04/21 05:34:25;;;;;;;63.10;43.28;;;;;;;5.57;83.59;100281.97;5016568;28;20054;-70
2021/04/21 05:37:30;;;;;;;69.30;42.92;;;;;;;5.63;83.70;100281.72;4991970;28;20439;-71
2021/04/21 05:40:24;;;;;;;66.20;42.63;;;;;;;5.80;83.36;100290.78;5016931;28;20046;-73
2021/04/21 05:43:29;;;;;;;62.58;43.72;;;;;;;5.83;83.30;100288.88;5015162;28;20111;-74
2021/04/21 05:46:13;;;;;;;68.15;45.67;;;;;;;5.92;82.96;100286.78;5010767;28;20424;-73
2021/04/21 05:48:45;;;;;;;70.18;45.00;;;;;;;5.96;83.21;100296.34;5012261;28;20050;-74
2021/04/21 05:51:49;;;;;;;66.10;45.65;;;;;;;6.05;83.07;100293.38;5006687;28;20057;-73
2021/04/21 05:54:47;;;;;;;69.45;46.55;;;;;;;6.17;82.79;100291.16;5014187;28;20111;-74
2021/04/21 05:57:48;;;;;;;68.20;45.20;;;;;;;6.29;82.93;100289.78;5013837;28;20053;-73
2021/04/21 06:00:42;;;;;;;67.97;45.88;;;;;;;6.37;82.30;100280.59;5014658;28;20689;-71
2021/04/21 06:03:11;;;;;;;68.18;45.33;;;;;;;6.51;81.33;100292.41;5015378;28;20050;-71
2021/04/21 06:05:37;;;;;;;61.20;42.80;;;;;;;6.68;80.56;100290.81;5015246;28;20060;-75
2021/04/21 06:08:12;;;;;;;61.83;44.60;;;;;;;6.83;80.04;100291.97;5015563;28;20046;-74
2021/04/21 06:10:40;;;;;;;63.55;43.70;;;;;;;6.90;79.62;100294.28;5016069;28;20050;-76
2021/04/21 06:13:07;;;;;;;64.72;42.78;;;;;;;7.02;78.99;100290.22;5014734;28;20045;-74
2021/04/21 06:15:40;;;;;;;61.25;42.42;;;;;;;7.16;78.60;100294.06;5031255;28;20050;-75
2021/04/21 06:18:09;;;;;;;63.67;44.10;;;;;;;7.22;78.67;100290.25;5015893;28;20053;-72
2021/04/21 06:20:43;;;;;;;61.85;42.45;;;;;;;7.36;77.92;100293.19;5031141;28;20069;-71
2021/04/21 06:23:13;;;;;;;63.47;41.40;;;;;;;7.44;77.84;100295.47;5013755;28;20057;-71
2021/04/21 06:25:42;;;;;;;61.10;42.47;;;;;;;7.48;77.98;100289.09;5014418;28;20439;-71
2021/04/21 06:28:17;;;;;;;69.30;43.08;;;;;;;7.55;78.01;100293.19;5015128;28;20406;-71
2021/04/21 06:30:46;;;;;;;63.05;41.72;;;;;;;7.63;78.24;100300.78;5015282;28;20066;-71
2021/04/21 06:33:13;;;;;;;62.75;43.25;;;;;;;7.72;77.42;100300.38;5015516;28;20057;-74
2021/04/21 06:35:41;;;;;;;59.80;40.83;;;;;;;7.81;77.18;100300.88;5018343;28;20477;-74
2021/04/21 06:38:09;;;;;;;56.28;39.88;;;;;;;7.87;76.26;100308.53;5013027;28;20165;-73
2021/04/21 06:40:37;;;;;;;60.88;42.03;;;;;;;7.94;76.23;100312.63;5004570;28;20058;-71
2021/04/21 06:43:04;;;;;;;63.15;40.45;;;;;;;7.98;76.31;100311.56;5011161;28;20054;-71
2021/04/21 06:45:36;;;;;;;60.40;40.05;;;;;;;8.02;76.51;100305.16;4995728;28;20050;-71
2021/04/21 06:48:05;;;;;;;62.33;41.00;;;;;;;8.11;76.23;100313.59;5002271;28;20436;-70
2021/04/21 06:50:37;;;;;;;57.55;40.47;;;;;;;8.18;76.38;100314.19;5015264;28;20053;-71
2021/04/21 06:53:07;;;;;;;59.00;41.80;;;;;;;8.20;76.60;100315.84;5014916;28;20418;-72
2021/04/21 06:55:35;;;;;;;64.38;43.80;;;;;;;8.28;76.43;100316.31;5015232;28;20073;-72
2021/04/21 06:58:15;;;;;;;61.88;42.47;;;;;;;8.37;76.38;100303.50;5015288;28;20050;-72
2021/04/21 07:00:41;;;;;;;66.25;45.80;;;;;;;8.49;75.53;100310.03;5014135;28;20053;-71
2021/04/21 07:03:07;;;;;;;67.03;46.20;;;;;;;8.55;74.98;100315.03;5014858;28;20054;-71
2021/04/21 07:05:42;;;;;;;74.32;46.85;;;;;;;8.62;74.99;100321.81;5015217;28;20402;-71
2021/04/21 07:08:10;;;;;;;65.75;46.28;;;;;;;8.60;75.37;100314.84;5014862;28;20049;-72
2021/04/21 07:10:56;;;;;;;64.05;45.97;;;;;;;8.68;75.49;100331.28;5030777;28;20049;-72
2021/04/21 07:13:26;;;;;;;69.72;46.72;;;;;;;8.73;75.86;100331.03;5016155;28;20054;-71
2021/04/21 07:15:58;;;;;;;66.97;47.10;;;;;;;8.89;76.40;100328.47;5016214;28;20058;-71
2021/04/21 07:18:29;;;;;;;69.93;46.92;;;;;;;8.91;75.85;100321.25;5016293;28;20046;-70
2021/04/21 07:20:57;;;;;;;70.13;46.42;;;;;;;9.01;75.59;100327.84;5012714;28;20050;-70
2021/04/21 07:23:25;;;;;;;66.75;46.30;;;;;;;9.04;74.67;100322.34;5015847;28;20049;-70
2021/04/21 07:25:52;;;;;;;69.63;46.22;;;;;;;9.10;74.70;100324.69;5016413;28;20057;-71
2021/04/21 07:28:21;;;;;;;82.05;50.83;;;;;;;9.14;74.69;100321.88;5016569;28;20061;-73
2021/04/21 07:30:49;;;;;;;67.32;45.67;;;;;;;9.22;74.86;100328.50;5014337;28;20060;-70
2021/04/21 07:33:43;;;;;;;66.97;44.30;;;;;;;9.26;74.83;100328.34;5014822;28;20428;-73
2021/04/21 07:36:20;;;;;;;68.22;44.97;;;;;;;9.34;74.74;100332.34;5030541;28;20420;-71
2021/04/21 07:38:48;;;;;;;60.85;43.72;;;;;;;9.44;74.73;100329.16;5013459;28;20052;-72
2021/04/21 07:41:30;;;;;;;60.38;43.58;;;;;;;9.51;74.65;100333.22;5011275;28;20064;-72
2021/04/21 07:43:56;;;;;;;66.25;43.95;;;;;;;9.49;73.19;100327.13;5011472;28;20057;-71
2021/04/21 07:46:23;;;;;;;72.40;46.15;;;;;;;9.54;73.70;100334.84;5002408;28;20440;-72
2021/04/21 07:48:50;;;;;;;65.82;44.25;;;;;;;9.63;73.96;100337.00;5013416;28;20104;-71
2021/04/21 07:51:20;;;;;;;67.65;45.70;;;;;;;9.65;73.03;100333.31;5016681;28;20085;-72
2021/04/21 07:54:07;;;;;;;67.82;46.78;;;;;;;9.71;73.34;100336.59;5020696;28;20065;-73
2021/04/21 07:56:49;;;;;;;61.95;41.83;;;;;;;9.70;72.81;100334.88;5015291;28;20119;-73
2021/04/21 07:59:39;;;;;;;62.20;43.45;;;;;;;9.71;73.68;100331.28;5014904;28;20053;-72
2021/04/21 08:02:16;;;;;;;67.70;44.05;;;;;;;9.81;74.09;100342.28;5013901;28;20065;-73
2021/04/21 08:04:47;;;;;;;67.90;45.38;;;;;;;9.88;74.07;100341.88;5013974;28;20054;-74
2021/04/21 08:07:28;;;;;;;65.20;43.70;;;;;;;9.88;73.23;100336.56;5032008;28;20054;-73
2021/04/21 08:09:55;;;;;;;64.78;43.20;;;;;;;9.96;73.37;100345.94;5015636;28;20104;-75
2021/04/21 08:12:22;;;;;;;61.80;44.13;;;;;;;10.10;73.11;100345.13;5016559;28;20050;-74
2021/04/21 08:14:50;;;;;;;68.22;45.53;;;;;;;10.10;73.77;100343.34;5018312;28;20060;-75
2021/04/21 08:17:19;;;;;;;65.55;45.30;;;;;;;10.18;73.26;100341.09;5028300;28;20061;-72
2021/04/21 08:19:48;;;;;;;60.85;41.28;;;;;;;10.28;72.75;100337.91;5015179;28;20106;-71
2021/04/21 08:22:23;;;;;;;59.30;41.50;;;;;;;10.37;73.02;100340.06;5010657;28;20053;-72
2021/04/21 08:24:49;;;;;;;58.88;40.22;;;;;;;10.49;72.51;100343.84;5019207;28;20061;-71
2021/04/21 08:27:17;;;;;;;66.25;40.58;;;;;;;10.54;72.11;100341.78;5018335;28;20053;-70
2021/04/21 08:31:52;;;;;;;54.70;37.10;;;;;;;10.82;70.72;100339.28;5109079;27;808844;-72
2021/04/21 08:34:19;;;;;;;53.83;37.55;;;;;;;10.84;71.13;100351.59;5115825;28;20512;-73
2021/04/21 08:36:46;;;;;;;59.17;38.53;;;;;;;11.00;71.35;100351.56;5114375;28;20063;-72
2021/04/21 08:39:13;;;;;;;50.15;35.58;;;;;;;11.02;69.24;100339.91;5081242;28;20055;-71
2021/04/21 08:41:43;;;;;;;46.00;33.33;;;;;;;11.16;68.31;100341.78;5113642;28;20425;-73
2021/04/21 08:44:11;;;;;;;47.80;34.15;;;;;;;11.27;68.57;100350.84;5112832;28;20070;-72
2021/04/21 08:46:38;;;;;;;50.80;34.22;;;;;;;11.36;67.74;100349.44;5109722;28;20048;-75
2021/04/21 08:49:06;;;;;;;48.35;35.00;;;;;;;11.39;68.17;100348.38;5106368;28;20071;-72
2021/04/21 08:51:32;;;;;;;53.30;34.85;;;;;;;11.48;67.78;100353.16;5083389;28;20044;-72
2021/04/21 08:54:12;;;;;;;46.30;34.30;;;;;;;11.58;67.17;100352.56;5096272;28;20048;-74
2021/04/21 08:56:41;;;;;;;46.78;32.95;;;;;;;11.72;66.65;100349.88;5074088;28;20051;-72
2021/04/21 08:59:11;;;;;;;43.08;32.20;;;;;;;11.81;66.19;100356.47;5091957;28;20425;-71
2021/04/21 09:01:38;;;;;;;41.08;30.33;;;;;;;11.99;65.73;100357.09;5108622;28;20479;-70
2021/04/21 09:04:04;;;;;;;41.40;28.90;;;;;;;12.12;63.10;100362.59;5107362;28;20412;-71
2021/04/21 09:06:31;;;;;;;44.75;30.38;;;;;;;12.09;61.93;100360.09;5100131;28;20441;-71
2021/04/21 09:08:59;;;;;;;39.72;29.33;;;;;;;12.13;62.24;100358.06;5091845;28;20060;-71
2021/04/21 09:11:26;;;;;;;41.88;30.55;;;;;;;12.17;62.46;100363.16;5091628;28;20098;-71
2021/04/21 09:13:52;;;;;;;40.20;28.13;;;;;;;12.25;61.24;100369.81;5092103;28;20137;-71
2021/04/21 09:16:19;;;;;;;44.25;29.52;;;;;;;12.29;61.78;100363.28;5092109;28;20056;-72
2021/04/21 09:18:46;;;;;;;39.13;29.60;;;;;;;12.33;60.85;100363.00;5088138;28;20051;-70
2021/04/21 09:21:27;;;;;;;45.40;28.90;;;;;;;12.44;60.99;100366.78;5108042;28;20079;-69
2021/04/21 09:23:53;;;;;;;41.35;29.08;;;;;;;12.49;60.27;100365.53;5094219;28;20051;-70
2021/04/21 09:26:24;;;;;;;42.45;29.60;;;;;;;12.57;62.33;100362.34;5102034;28;20052;-71
2021/04/21 09:28:54;;;;;;;44.55;30.02;;;;;;;12.70;62.41;100361.53;5108841;28;20413;-70
2021/04/21 09:31:22;;;;;;;40.97;27.70;;;;;;;12.81;59.29;100369.69;5111511;28;20043;-70
2021/04/21 09:34:12;;;;;;;36.30;25.83;;;;;;;12.99;58.02;100378.34;5093281;28;20097;-71
2021/04/21 09:36:40;;;;;;;;;;;;;;;13.15;55.94;100378.16;5095609;28;20051;-70
2021/04/21 09:39:18;;;;;;;35.58;23.08;;;;;;;13.28;55.41;100377.28;5091379;28;19920;-70
2021/04/21 09:41:47;;;;;;;30.20;21.90;;;;;;;13.44;54.71;100383.31;5067842;28;20047;-71
2021/04/21 09:44:18;;;;;;;42.53;21.25;;;;;;;13.50;53.87;100381.22;5077526;28;20052;-70
2021/04/21 09:46:45;;;;;;;31.85;20.08;;;;;;;13.72;53.84;100377.84;5080404;28;20052;-71
2021/04/21 09:49:40;;;;;;;25.92;19.02;;;;;;;13.84;52.60;100376.13;5070165;28;20567;-71
2021/04/21 09:52:12;;;;;;;24.80;18.17;;;;;;;13.81;52.24;100373.66;5078838;28;20048;-71
2021/04/21 09:54:46;;;;;;;33.13;19.67;;;;;;;13.72;51.52;100353.69;5086152;28;20323;-72
2021/04/21 09:57:23;;;;;;;31.35;19.83;;;;;;;13.95;51.81;100375.38;5076925;28;20052;-73
2021/04/21 09:59:55;;;;;;;;;;;;;;;14.08;51.75;100375.31;5082619;28;20051;-71
2021/04/21 10:02:38;;;;;;;28.02;20.30;;;;;;;14.03;51.79;100377.47;5097063;28;20313;-71
2021/04/21 10:05:26;;;;;;;30.38;19.27;;;;;;;14.07;51.61;100374.47;5093502;28;20048;-72
2021/04/21 10:08:22;;;;;;;25.90;17.92;;;;;;;14.23;51.20;100376.88;5076707;28;20056;-72
2021/04/21 10:11:00;;;;;;;28.42;17.95;;;;;;;14.33;50.17;100373.53;5077062;28;20052;-72
2021/04/21 10:13:43;;;;;;;24.38;18.55;;;;;;;14.36;51.19;100378.66;5077113;28;20052;-72
2021/04/21 10:16:10;;;;;;;26.00;19.33;;;;;;;14.36;51.45;100360.75;5059762;28;20061;-71
2021/04/21 10:18:38;;;;;;;23.73;17.80;;;;;;;14.51;49.38;100368.63;5059814;28;20048;-73
2021/04/21 10:21:10;;;;;;;22.45;16.45;;;;;;;14.44;48.51;100364.69;5077162;28;20044;-74
2021/04/21 10:23:36;;;;;;;24.23;16.73;;;;;;;14.65;49.68;100372.94;5077569;28;20056;-70
2021/04/21 10:26:08;;;;;;;24.83;16.23;;;;;;;14.58;47.85;100372.56;5087221;28;20198;-71
2021/04/21 10:28:40;;;;;;;26.38;16.83;;;;;;;14.74;49.23;100369.63;5076690;28;20446;-72
2021/04/21 10:31:10;;;;;;;25.85;16.75;;;;;;;14.86;48.06;100369.69;5076649;28;20735;-74
2021/04/21 10:33:37;;;;;;;23.92;16.10;;;;;;;15.07;48.11;100367.16;5066009;28;20052;-71
2021/04/21 10:36:05;;;;;;;23.25;16.10;;;;;;;15.19;47.91;100354.59;5094100;28;20048;-72
2021/04/21 10:38:32;;;;;;;22.75;16.42;;;;;;;15.39;47.63;100358.44;5079435;28;20048;-71
2021/04/21 10:41:39;;;;;;;24.80;16.42;;;;;;;15.46;47.17;100356.09;5096943;28;20056;-72
2021/04/21 10:44:09;;;;;;;20.75;15.48;;;;;;;15.61;45.41;100354.91;5071444;28;20056;-72
2021/04/21 10:47:04;;;;;;;20.75;15.68;;;;;;;15.54;44.01;100353.69;5081709;28;20052;-73
2021/04/21 10:49:40;;;;;;;28.45;15.68;;;;;;;15.59;45.13;100356.00;5076490;28;20079;-72
2021/04/21 10:52:10;;;;;;;20.85;14.93;;;;;;;15.58;46.38;100347.06;5075888;28;20449;-73
2021/04/21 10:54:36;;;;;;;24.42;15.48;;;;;;;15.94;45.22;100344.28;5075256;28;20048;-73
2021/04/21 10:57:21;;;;;;;22.95;15.52;;;;;;;16.06;43.68;100353.19;5091830;28;20058;-71
2021/04/21 11:00:13;;;;;;;20.20;13.38;;;;;;;16.32;41.83;100357.41;5074211;28;20052;-70
2021/04/21 11:02:45;;;;;;;19.85;14.48;;;;;;;16.32;43.12;100357.41;5075294;28;20067;-70
2021/04/21 11:05:21;;;;;;;20.70;15.45;;;;;;;16.38;43.27;100351.53;5079756;28;20109;-72
2021/04/21 11:07:58;;;;;;;25.05;14.82;;;;;;;16.52;42.75;100356.63;5095066;28;20052;-70
2021/04/21 11:10:39;;;;;;;20.98;15.30;;;;;;;16.47;43.21;100350.78;5095374;28;20074;-70
2021/04/21 11:13:08;;;;;;;24.90;15.88;;;;;;;16.68;43.94;100353.50;5095096;28;20098;-72
2021/04/21 11:15:42;;;;;;;26.83;16.35;;;;;;;16.99;44.02;100351.91;5088664;28;20338;-71
2021/04/21 11:18:08;;;;;;;23.17;14.32;;;;;;;16.97;42.27;100352.03;5084132;28;20052;-73
2021/04/21 11:20:47;;;;;;;26.10;16.17;;;;;;;17.13;42.19;100346.22;5075416;28;20392;-72
2021/04/21 11:23:44;;;;;;;32.40;18.77;;;;;;;16.99;43.74;100350.06;5075561;28;20052;-70
2021/04/21 11:26:22;;;;;;;26.92;17.77;;;;;;;17.04;42.69;100355.06;5075309;28;20377;-71
2021/04/21 11:29:02;;;;;;;24.40;19.38;;;;;;;16.84;43.76;100346.84;5057957;28;20044;-70
2021/04/21 11:31:44;;;;;;;25.42;19.20;;;;;;;16.91;43.95;100355.25;5079408;28;20076;-70
2021/04/21 11:34:17;;;;;;;24.65;19.92;;;;;;;17.02;43.69;100351.66;5080390;28;20095;-70
2021/04/21 11:36:57;;;;;;;27.10;19.83;;;;;;;17.03;44.21;100350.69;5075241;28;20341;-70
2021/04/21 11:39:41;;;;;;;25.90;19.55;;;;;;;17.42;43.12;100352.78;5074614;28;20045;-71
2021/04/21 11:42:33;;;;;;;28.10;19.83;;;;;;;17.40;42.81;100331.31;5075254;28;20363;-70
2021/04/21 11:45:16;;;;;;;28.73;20.80;;;;;;;17.17;43.81;100344.13;5075086;28;20106;-71
2021/04/21 11:48:08;;;;;;;27.23;20.55;;;;;;;16.75;44.46;100347.59;5075528;28;20075;-71
2021/04/21 11:50:35;;;;;;;24.65;19.02;;;;;;;16.42;44.25;100351.19;5061889;28;20101;-73
2021/04/21 11:53:08;;;;;;;26.05;20.83;;;;;;;16.12;45.20;100347.31;5075287;28;20098;-71